This is the latest recevied weather packets stored in our database for station/object KF5JED-13. If no packets are shown the sender has not sent any weather packets the latest 10 day(s).
| Time | Temp. | Humidity | Pressure | Rain* | Wind** | Luminosity | Snow |
|---|---|---|---|---|---|---|---|
| 1777492871 | 20° C | 33% | 1016.9 hPa | 0 mm | - | 830 W/m² | - |
| 1777492568 | 20° C | 32% | 1016.9 hPa | 0 mm | - | 837 W/m² | - |
| 1777492263 | 20° C | 32% | 1016.9 hPa | 0 mm | - | 33 W/m² | - |
| 1777491961 | 20° C | 31% | 1017 hPa | 0 mm | - | 847 W/m² | - |
| 1777491656 | 19.44° C | 32% | 1017 hPa | 0 mm | - | 851 W/m² | - |
| 1777491355 | 19.44° C | 31% | 1016.9 hPa | 0 mm | - | 858 W/m² | - |
| 1777491051 | 19.44° C | 32% | 1017 hPa | 0 mm | - | 863 W/m² | - |
| 1777490746 | 18.89° C | 33% | 1017.5 hPa | 0 mm | - | 866 W/m² | - |
| 1777490444 | 19.44° C | 32% | 1017.2 hPa | 0 mm | - | 869 W/m² | - |
| 1777490140 | 19.44° C | 33% | 1017 hPa | 0 mm | - | 881 W/m² | - |
| 1777489838 | 19.44° C | 32% | 1017.3 hPa | 0 mm | - | 877 W/m² | - |
| 1777489534 | 18.89° C | 35% | 1017.3 hPa | 0 mm | - | 889 W/m² | - |
| 1777489231 | 18.33° C | 35% | 1017.6 hPa | 0 mm | - | 824 W/m² | - |
| 1777488928 | 18.33° C | 36% | 1017.6 hPa | 0 mm | - | 899 W/m² | - |
| 1777488625 | 18.33° C | 35% | 1017.2 hPa | 0 mm | - | 824 W/m² | - |
| 1777488323 | 18.33° C | 34% | 1017.6 hPa | 0 mm | - | 863 W/m² | - |
| 1777488021 | 18.33° C | 37% | 1017.6 hPa | 0 mm | - | 915 W/m² | - |
| 1777487719 | 17.78° C | 37% | 1017.7 hPa | 0 mm | - | 766 W/m² | - |
| 1777487416 | 17.78° C | 37% | 1017.8 hPa | 0 mm | - | 753 W/m² | - |
| 1777487113 | 17.78° C | 38% | 1018 hPa | 0 mm | - | 815 W/m² | - |
| 1777486809 | 17.78° C | 37% | 1018 hPa | 0 mm | - | 718 W/m² | - |
| 1777486507 | 17.22° C | 41% | 1018.4 hPa | 0 mm | - | 679 W/m² | - |
| 1777486204 | 17.22° C | 41% | 1018.4 hPa | 0 mm | - | 609 W/m² | - |
| 1777485902 | 17.22° C | 40% | 1018.5 hPa | 0 mm | - | 729 W/m² | - |
| 1777485597 | 17.22° C | 43% | 1018.5 hPa | 0 mm | - | 742 W/m² | - |
* Rain latest hour (hover to see other rain measurements)
** Current wind speed in m/s (hover to see current wind gust speed)